METAR Data
IDs: Format: Raw Decoded Include TAF

Data at: 0822 UTC 20 Sep 2018

PABL 200756Z AUTO 22003KT 10SM OVC036 07/05 A3005 RMK AO2 SLP178 T00670050 401060061
PABL 200656Z AUTO 29003KT 10SM OVC032 07/06 A3005 RMK AO2 SLP178 T00670056
PABL 200556Z AUTO 28005KT 10SM OVC037 07/06 A3005 RMK AO2 RAE09 SLP178 P0000 60001 T00720056 10100 20072 53001
PABL 200525Z AUTO 30003KT 10SM SCT017 OVC031 07/06 A3005 RMK AO2 RAE09 P0000
PABL 200456Z AUTO 30004KT 10SM -RA FEW017 BKN029 OVC035 08/06 A3005 RMK AO2 RAB52 SLP177 P0000 T00780056
PABL 200256Z AUTO 31007KT 10SM BKN035 OVC041 09/05 A3004 RMK AO2 RAB05E21 SLP174 P0000 60001 T00890050 56002
PABL 200156Z AUTO 33005KT 10SM SCT021 SCT026 OVC032 09/06 A3004 RMK AO2 RAB16E38 SLP175 P0001 T00890056
PABL 200126Z AUTO 33006KT 9SM -RA BKN021 OVC042 08/06 A3004 RMK AO2 RAB16 P0000
PABL 200056Z AUTO 35006KT 10SM FEW013 OVC040 09/05 A3004 RMK AO2 RAB03E24 SLP175 P0000 T00940050
PABL 200040Z AUTO 34006KT 10SM SCT018 OVC040 09/06 A3004 RMK AO2 RAB03E24 P0000
PABL 192356Z AUTO 34006KT 10SM OVC024 09/05 A3005 RMK AO2 RAB21E45 SLP176 P0000 60000 T00940050 10106 20061 56004
PABL 192256Z AUTO 34004KT 10SM BKN022 09/05 A3005 RMK AO2 SLP177 T00940050
PABL 192156Z AUTO 32006KT 10SM FEW012 08/06 A3005 RMK AO2 SLP179 T00830061
PABL 192134Z AUTO 32004KT 10SM SCT009 SCT017 09/06 A3005 RMK AO2
PABL 192056Z AUTO 00000KT 10SM OVC007 08/06 A3006 RMK AO2 SLP181 T00780056 58008
PABL 192044Z AUTO 00000KT 10SM OVC007 08/06 A3006 RMK AO2
PABL 191956Z AUTO 00000KT 10SM OVC005 07/06 A3007 RMK AO2 SLP184 T00720061
PABL 191856Z AUTO 00000KT 10SM OVC005 06/06 A3008 RMK AO2 SLP187 T00610056
PABL 191756Z AUTO 00000KT 10SM OVC005 06/06 A3008 RMK AO2 SLP189 60000 T00610056 10067 20061 58004
PABL 191656Z AUTO 09003KT 10SM OVC005 06/06 A3009 RMK AO2 SLP190 T00610056
PABL 191645Z AUTO 12003KT 10SM OVC005 06/06 A3009 RMK AO2
PABL 191556Z AUTO 13003KT 10SM OVC007 06/06 A3009 RMK AO2 SLP192 T00610056
PABL 191456Z AUTO 12004KT 10SM OVC007 06/06 A3009 RMK AO2 SLP193 60000 T00610056 56010
PABL 191413Z AUTO 11005KT 10SM BKN007 OVC042 06/06 A3010 RMK AO2
PABL 191356Z AUTO 12006KT 10SM FEW007 BKN042 OVC060 06/06 A3010 RMK AO2 RAB15E34 SLP195 P0000 T00610056
PABL 191256Z AUTO 10008KT 10SM BKN042 07/06 A3011 RMK AO2 RAE43 SLP199 P0000 T00670056
PABL 191156Z AUTO 14008KT 10SM -RA OVC047 07/06 A3012 RMK AO2 SLP203 P0004 60005 70011 T00670061 10078 20061 56006
PABL 191056Z AUTO 13009KT 10SM -RA OVC040 07/06 A3013 RMK AO2 SLP205 P0000 T00670056
PABL 190956Z AUTO 13008KT 10SM -RA OVC050 06/05 A3013 RMK AO2 SLP206 P0001 T00610050
PABL 190856Z AUTO 13006KT 10SM -RA BKN060 OVC075 07/05 A3014 RMK AO2 RAB13 SLP209 P0000 60000 T00670050 58005
PABL 190756Z AUTO 15006KT 10SM SCT060 OVC080 07/04 A3016 RMK AO2 SLP214 T00720044 401170050
PABL 190656Z AUTO 14007KT 10SM OVC060 08/04 A3016 RMK AO2 SLP216 T00780044
PABL 190556Z AUTO 12005KT 10SM BKN060 OVC075 08/05 A3016 RMK AO2 SLP215 60001 T00780050 10117 20078 58003
PABL 190456Z AUTO 15004KT 10SM BKN060 OVC100 09/06 A3016 RMK AO2 RAE03 SLP217 P0000 T00890056
PABL 190356Z AUTO 19004KT 10SM -RA OVC037 09/06 A3016 RMK AO2 RAB09 SLP217 P0001 T00890056
PABL 190256Z AUTO 22006KT 10SM BKN055 11/04 A3017 RMK AO2 SLP218 T01060039 58004
PABL 190156Z AUTO 21006KT 10SM FEW055 11/04 A3017 RMK AO2 SLP220 T01060039
PABL 190056Z AUTO VRB04KT 10SM BKN060 11/04 A3018 RMK AO2 SLP222 T01060039
PABL 182356Z AUTO 08004KT 10SM OVC055 11/06 A3018 RMK AO2 SLP222 60002 T01060056 10106 20050 58003
PABL 182256Z AUTO 03003KT 10SM FEW055 10/06 A3019 RMK AO2 RAE11 SLP224 P0000 T01000056
PABL 182156Z AUTO 00000KT 6SM -RA BR FEW022 SCT031 OVC050 09/07 A3019 RMK AO2 RAB31 SLP226 P0002 T00890067
PABL 182056Z AUTO 00000KT 10SM SCT035 OVC050 09/06 A3019 RMK AO2 RAE18 SLP225 P0000 60000 T00940061 51005